sensor_id;sensor_type;location;lat;lon;timestamp;temperature;humidity
47338;DHT22;33069;51.970;5.892;2023-04-15T00:02:00;9.70;62.10
47338;DHT22;33069;51.970;5.892;2023-04-15T00:04:26;9.70;61.90
47338;DHT22;33069;51.970;5.892;2023-04-15T00:06:52;9.40;62.70
47338;DHT22;33069;51.970;5.892;2023-04-15T00:09:19;9.50;62.80
47338;DHT22;33069;51.970;5.892;2023-04-15T00:11:45;9.50;62.70
47338;DHT22;33069;51.970;5.892;2023-04-15T00:14:11;9.50;62.70
47338;DHT22;33069;51.970;5.892;2023-04-15T00:16:37;9.30;63.00
47338;DHT22;33069;51.970;5.892;2023-04-15T00:19:03;9.20;63.40
47338;DHT22;33069;51.970;5.892;2023-04-15T00:21:29;9.20;63.40
47338;DHT22;33069;51.970;5.892;2023-04-15T00:23:55;9.40;62.80
47338;DHT22;33069;51.970;5.892;2023-04-15T00:26:21;9.20;63.20
47338;DHT22;33069;51.970;5.892;2023-04-15T00:28:46;9.10;63.60
47338;DHT22;33069;51.970;5.892;2023-04-15T00:31:12;9.00;63.60
47338;DHT22;33069;51.970;5.892;2023-04-15T00:33:38;9.00;63.60
47338;DHT22;33069;51.970;5.892;2023-04-15T00:36:05;9.10;64.00
47338;DHT22;33069;51.970;5.892;2023-04-15T00:38:31;8.90;63.80
47338;DHT22;33069;51.970;5.892;2023-04-15T00:40:57;8.90;63.90
47338;DHT22;33069;51.970;5.892;2023-04-15T00:43:23;9.00;63.90
47338;DHT22;33069;51.970;5.892;2023-04-15T00:45:51;8.90;64.00
47338;DHT22;33069;51.970;5.892;2023-04-15T00:48:18;8.90;64.60
47338;DHT22;33069;51.970;5.892;2023-04-15T00:50:44;8.90;64.30
47338;DHT22;33069;51.970;5.892;2023-04-15T00:53:10;8.90;64.30
47338;DHT22;33069;51.970;5.892;2023-04-15T00:55:36;8.90;64.50
47338;DHT22;33069;51.970;5.892;2023-04-15T00:58:02;8.90;64.50
47338;DHT22;33069;51.970;5.892;2023-04-15T01:00:28;8.90;64.70
47338;DHT22;33069;51.970;5.892;2023-04-15T01:02:55;8.90;64.70
47338;DHT22;33069;51.970;5.892;2023-04-15T01:05:21;8.90;64.90
47338;DHT22;33069;51.970;5.892;2023-04-15T01:07:47;8.80;65.40
47338;DHT22;33069;51.970;5.892;2023-04-15T01:10:13;9.00;65.00
47338;DHT22;33069;51.970;5.892;2023-04-15T01:12:39;9.00;65.00
47338;DHT22;33069;51.970;5.892;2023-04-15T01:15:05;9.10;64.70
47338;DHT22;33069;51.970;5.892;2023-04-15T01:17:32;9.10;65.30
47338;DHT22;33069;51.970;5.892;2023-04-15T01:19:58;8.90;65.20
47338;DHT22;33069;51.970;5.892;2023-04-15T01:22:25;9.00;65.50
47338;DHT22;33069;51.970;5.892;2023-04-15T01:25:05;8.90;65.40
47338;DHT22;33069;51.970;5.892;2023-04-15T01:27:33;8.80;65.80
47338;DHT22;33069;51.970;5.892;2023-04-15T01:30:00;8.90;65.70
47338;DHT22;33069;51.970;5.892;2023-04-15T01:32:26;8.90;66.20
47338;DHT22;33069;51.970;5.892;2023-04-15T01:34:51;8.70;66.20
47338;DHT22;33069;51.970;5.892;2023-04-15T01:37:17;8.80;66.50
47338;DHT22;33069;51.970;5.892;2023-04-15T01:39:43;8.80;66.30
47338;DHT22;33069;51.970;5.892;2023-04-15T01:42:09;8.90;66.80
47338;DHT22;33069;51.970;5.892;2023-04-15T01:44:35;8.80;66.70
47338;DHT22;33069;51.970;5.892;2023-04-15T01:47:01;8.80;66.60
47338;DHT22;33069;51.970;5.892;2023-04-15T01:49:27;8.80;66.90
47338;DHT22;33069;51.970;5.892;2023-04-15T01:51:53;8.90;66.30
47338;DHT22;33069;51.970;5.892;2023-04-15T01:54:19;8.80;66.70
47338;DHT22;33069;51.970;5.892;2023-04-15T01:56:45;8.70;66.70
47338;DHT22;33069;51.970;5.892;2023-04-15T01:59:10;8.80;66.80
47338;DHT22;33069;51.970;5.892;2023-04-15T02:01:36;8.70;67.00
47338;DHT22;33069;51.970;5.892;2023-04-15T02:04:02;8.80;67.00
47338;DHT22;33069;51.970;5.892;2023-04-15T02:06:28;8.80;67.50
47338;DHT22;33069;51.970;5.892;2023-04-15T02:08:53;8.80;67.00
47338;DHT22;33069;51.970;5.892;2023-04-15T02:11:19;8.80;67.60
47338;DHT22;33069;51.970;5.892;2023-04-15T02:13:45;8.70;67.40
47338;DHT22;33069;51.970;5.892;2023-04-15T02:16:18;8.60;67.80
47338;DHT22;33069;51.970;5.892;2023-04-15T02:18:45;8.60;68.30
47338;DHT22;33069;51.970;5.892;2023-04-15T02:21:11;8.50;68.20
47338;DHT22;33069;51.970;5.892;2023-04-15T02:23:37;8.40;68.50
47338;DHT22;33069;51.970;5.892;2023-04-15T02:26:03;8.50;68.70
47338;DHT22;33069;51.970;5.892;2023-04-15T02:28:28;8.50;68.90
47338;DHT22;33069;51.970;5.892;2023-04-15T02:30:54;8.50;68.70
47338;DHT22;33069;51.970;5.892;2023-04-15T02:33:22;8.50;68.80
47338;DHT22;33069;51.970;5.892;2023-04-15T02:35:47;8.40;68.80
47338;DHT22;33069;51.970;5.892;2023-04-15T02:38:13;8.60;68.90
47338;DHT22;33069;51.970;5.892;2023-04-15T02:40:41;8.70;68.80
47338;DHT22;33069;51.970;5.892;2023-04-15T02:43:07;8.60;68.70
47338;DHT22;33069;51.970;5.892;2023-04-15T02:45:32;8.50;69.30
47338;DHT22;33069;51.970;5.892;2023-04-15T02:47:58;8.50;69.10
47338;DHT22;33069;51.970;5.892;2023-04-15T02:51:09;8.50;69.10
47338;DHT22;33069;51.970;5.892;2023-04-15T02:53:53;8.70;69.10
47338;DHT22;33069;51.970;5.892;2023-04-15T02:56:19;8.70;69.10
47338;DHT22;33069;51.970;5.892;2023-04-15T02:58:45;8.70;68.60
47338;DHT22;33069;51.970;5.892;2023-04-15T03:01:11;8.50;68.80
47338;DHT22;33069;51.970;5.892;2023-04-15T03:03:36;8.60;69.00
47338;DHT22;33069;51.970;5.892;2023-04-15T03:06:02;8.40;69.30
47338;DHT22;33069;51.970;5.892;2023-04-15T03:08:28;8.40;69.50
47338;DHT22;33069;51.970;5.892;2023-04-15T03:10:53;8.30;69.80
47338;DHT22;33069;51.970;5.892;2023-04-15T03:13:19;8.40;69.90
47338;DHT22;33069;51.970;5.892;2023-04-15T03:15:46;8.50;69.90
47338;DHT22;33069;51.970;5.892;2023-04-15T03:18:12;8.50;69.50
47338;DHT22;33069;51.970;5.892;2023-04-15T03:20:38;8.30;69.90
47338;DHT22;33069;51.970;5.892;2023-04-15T03:23:03;8.30;70.30
47338;DHT22;33069;51.970;5.892;2023-04-15T03:25:29;8.40;70.60
47338;DHT22;33069;51.970;5.892;2023-04-15T03:27:55;8.20;70.30
47338;DHT22;33069;51.970;5.892;2023-04-15T03:30:21;8.20;70.70
47338;DHT22;33069;51.970;5.892;2023-04-15T03:32:46;8.30;70.80
47338;DHT22;33069;51.970;5.892;2023-04-15T03:35:12;8.20;71.20
47338;DHT22;33069;51.970;5.892;2023-04-15T03:37:38;8.30;71.10
47338;DHT22;33069;51.970;5.892;2023-04-15T03:40:04;8.30;70.70
47338;DHT22;33069;51.970;5.892;2023-04-15T03:42:30;8.20;70.80
47338;DHT22;33069;51.970;5.892;2023-04-15T03:44:55;8.30;71.10
47338;DHT22;33069;51.970;5.892;2023-04-15T03:47:21;8.20;71.40
47338;DHT22;33069;51.970;5.892;2023-04-15T03:49:47;8.20;71.30
47338;DHT22;33069;51.970;5.892;2023-04-15T03:52:13;8.00;71.80
47338;DHT22;33069;51.970;5.892;2023-04-15T03:57:47;8.00;72.10
47338;DHT22;33069;51.970;5.892;2023-04-15T04:00:13;8.00;72.50
47338;DHT22;33069;51.970;5.892;2023-04-15T04:02:40;7.90;72.60
47338;DHT22;33069;51.970;5.892;2023-04-15T04:05:05;7.90;73.50
47338;DHT22;33069;51.970;5.892;2023-04-15T04:07:31;8.00;73.00
47338;DHT22;33069;51.970;5.892;2023-04-15T04:09:57;8.00;72.50
47338;DHT22;33069;51.970;5.892;2023-04-15T04:12:23;7.90;72.90
47338;DHT22;33069;51.970;5.892;2023-04-15T04:14:48;7.90;72.80
47338;DHT22;33069;51.970;5.892;2023-04-15T04:17:14;7.70;72.90
47338;DHT22;33069;51.970;5.892;2023-04-15T04:19:40;7.70;73.50
47338;DHT22;33069;51.970;5.892;2023-04-15T04:22:05;7.60;73.40
47338;DHT22;33069;51.970;5.892;2023-04-15T04:24:31;7.60;73.60
47338;DHT22;33069;51.970;5.892;2023-04-15T04:26:57;7.60;74.20
47338;DHT22;33069;51.970;5.892;2023-04-15T04:29:23;7.70;73.90
47338;DHT22;33069;51.970;5.892;2023-04-15T04:31:48;7.50;73.80
47338;DHT22;33069;51.970;5.892;2023-04-15T04:34:15;7.50;74.10
47338;DHT22;33069;51.970;5.892;2023-04-15T04:36:40;7.50;74.40
47338;DHT22;33069;51.970;5.892;2023-04-15T04:39:07;7.50;74.40
47338;DHT22;33069;51.970;5.892;2023-04-15T04:41:32;7.40;74.70
47338;DHT22;33069;51.970;5.892;2023-04-15T04:43:58;7.40;75.00
47338;DHT22;33069;51.970;5.892;2023-04-15T04:46:24;7.30;74.90
47338;DHT22;33069;51.970;5.892;2023-04-15T04:48:49;7.20;75.30
47338;DHT22;33069;51.970;5.892;2023-04-15T04:51:15;7.20;75.90
47338;DHT22;33069;51.970;5.892;2023-04-15T04:53:41;7.30;75.80
47338;DHT22;33069;51.970;5.892;2023-04-15T04:56:07;7.30;75.70
47338;DHT22;33069;51.970;5.892;2023-04-15T05:01:50;7.20;75.80
47338;DHT22;33069;51.970;5.892;2023-04-15T05:04:16;7.10;76.10
47338;DHT22;33069;51.970;5.892;2023-04-15T05:06:42;7.10;76.40
47338;DHT22;33069;51.970;5.892;2023-04-15T05:09:07;7.00;76.50
47338;DHT22;33069;51.970;5.892;2023-04-15T05:11:33;7.00;76.60
47338;DHT22;33069;51.970;5.892;2023-04-15T05:13:59;7.00;76.80
47338;DHT22;33069;51.970;5.892;2023-04-15T05:16:26;6.90;77.10
47338;DHT22;33069;51.970;5.892;2023-04-15T05:18:52;7.00;77.20
47338;DHT22;33069;51.970;5.892;2023-04-15T05:21:18;7.10;77.30
47338;DHT22;33069;51.970;5.892;2023-04-15T05:23:44;7.10;77.10
47338;DHT22;33069;51.970;5.892;2023-04-15T05:26:10;7.20;77.00
47338;DHT22;33069;51.970;5.892;2023-04-15T05:28:35;7.10;77.20
47338;DHT22;33069;51.970;5.892;2023-04-15T05:31:01;7.10;77.30
47338;DHT22;33069;51.970;5.892;2023-04-15T05:33:27;7.10;77.40
47338;DHT22;33069;51.970;5.892;2023-04-15T05:35:53;7.00;77.60
47338;DHT22;33069;51.970;5.892;2023-04-15T05:38:18;7.10;77.80
47338;DHT22;33069;51.970;5.892;2023-04-15T05:40:44;7.10;77.70
47338;DHT22;33069;51.970;5.892;2023-04-15T05:43:10;7.20;78.10
47338;DHT22;33069;51.970;5.892;2023-04-15T05:45:36;7.10;78.10
47338;DHT22;33069;51.970;5.892;2023-04-15T05:48:01;7.20;78.10
47338;DHT22;33069;51.970;5.892;2023-04-15T05:50:27;7.30;77.90
47338;DHT22;33069;51.970;5.892;2023-04-15T05:52:53;7.30;78.00
47338;DHT22;33069;51.970;5.892;2023-04-15T05:55:18;7.40;78.00
47338;DHT22;33069;51.970;5.892;2023-04-15T05:57:44;7.50;78.10
47338;DHT22;33069;51.970;5.892;2023-04-15T06:00:10;7.50;78.00
47338;DHT22;33069;51.970;5.892;2023-04-15T06:02:36;7.70;78.10
47338;DHT22;33069;51.970;5.892;2023-04-15T06:05:02;7.80;77.80
47338;DHT22;33069;51.970;5.892;2023-04-15T06:07:28;7.90;77.50
47338;DHT22;33069;51.970;5.892;2023-04-15T06:09:54;7.90;77.00
47338;DHT22;33069;51.970;5.892;2023-04-15T06:12:19;7.90;76.80
47338;DHT22;33069;51.970;5.892;2023-04-15T06:14:45;7.90;76.80
47338;DHT22;33069;51.970;5.892;2023-04-15T06:17:11;7.90;76.90
47338;DHT22;33069;51.970;5.892;2023-04-15T06:19:39;8.10;76.60
47338;DHT22;33069;51.970;5.892;2023-04-15T06:22:05;8.20;76.50
47338;DHT22;33069;51.970;5.892;2023-04-15T06:24:31;8.20;76.30
47338;DHT22;33069;51.970;5.892;2023-04-15T06:26:57;8.20;76.00
47338;DHT22;33069;51.970;5.892;2023-04-15T06:29:23;8.20;75.90
47338;DHT22;33069;51.970;5.892;2023-04-15T06:31:48;8.30;75.90
47338;DHT22;33069;51.970;5.892;2023-04-15T06:34:14;8.20;76.00
47338;DHT22;33069;51.970;5.892;2023-04-15T06:36:40;8.30;76.00
47338;DHT22;33069;51.970;5.892;2023-04-15T06:39:06;8.30;76.20
47338;DHT22;33069;51.970;5.892;2023-04-15T06:41:31;8.30;76.20
47338;DHT22;33069;51.970;5.892;2023-04-15T06:43:58;8.30;76.20
47338;DHT22;33069;51.970;5.892;2023-04-15T06:46:24;8.30;75.70
47338;DHT22;33069;51.970;5.892;2023-04-15T06:48:55;8.20;75.30
47338;DHT22;33069;51.970;5.892;2023-04-15T06:51:21;8.20;75.10
47338;DHT22;33069;51.970;5.892;2023-04-15T06:53:48;8.30;74.50
47338;DHT22;33069;51.970;5.892;2023-04-15T06:56:14;8.30;74.00
47338;DHT22;33069;51.970;5.892;2023-04-15T06:58:39;8.40;73.70
47338;DHT22;33069;51.970;5.892;2023-04-15T07:01:15;8.30;73.80
47338;DHT22;33069;51.970;5.892;2023-04-15T07:03:40;8.30;73.70
47338;DHT22;33069;51.970;5.892;2023-04-15T07:06:06;8.20;74.10
47338;DHT22;33069;51.970;5.892;2023-04-15T07:08:33;8.20;74.30
47338;DHT22;33069;51.970;5.892;2023-04-15T07:10:59;8.20;74.10
47338;DHT22;33069;51.970;5.892;2023-04-15T07:13:26;8.10;73.80
47338;DHT22;33069;51.970;5.892;2023-04-15T07:15:51;8.20;74.30
47338;DHT22;33069;51.970;5.892;2023-04-15T07:18:17;8.20;74.00
47338;DHT22;33069;51.970;5.892;2023-04-15T07:20:43;8.20;74.20
47338;DHT22;33069;51.970;5.892;2023-04-15T07:23:08;8.20;74.00
47338;DHT22;33069;51.970;5.892;2023-04-15T07:25:34;8.20;73.80
47338;DHT22;33069;51.970;5.892;2023-04-15T07:28:00;8.20;73.90
47338;DHT22;33069;51.970;5.892;2023-04-15T07:30:26;8.20;73.50
47338;DHT22;33069;51.970;5.892;2023-04-15T07:32:53;8.00;73.70
47338;DHT22;33069;51.970;5.892;2023-04-15T07:35:19;8.00;74.20
47338;DHT22;33069;51.970;5.892;2023-04-15T07:37:46;8.20;74.50
47338;DHT22;33069;51.970;5.892;2023-04-15T07:40:12;8.30;74.00
47338;DHT22;33069;51.970;5.892;2023-04-15T07:42:39;8.30;73.30
47338;DHT22;33069;51.970;5.892;2023-04-15T07:45:05;8.20;73.40
47338;DHT22;33069;51.970;5.892;2023-04-15T07:47:31;8.40;73.60
47338;DHT22;33069;51.970;5.892;2023-04-15T07:49:57;8.60;73.10
47338;DHT22;33069;51.970;5.892;2023-04-15T07:52:23;8.40;72.80
47338;DHT22;33069;51.970;5.892;2023-04-15T07:54:48;8.60;72.90
47338;DHT22;33069;51.970;5.892;2023-04-15T07:57:14;8.70;72.70
47338;DHT22;33069;51.970;5.892;2023-04-15T07:59:41;9.00;72.50
47338;DHT22;33069;51.970;5.892;2023-04-15T08:02:07;8.90;71.90
47338;DHT22;33069;51.970;5.892;2023-04-15T08:04:33;8.80;72.40
47338;DHT22;33069;51.970;5.892;2023-04-15T08:06:58;9.00;72.20
47338;DHT22;33069;51.970;5.892;2023-04-15T08:09:24;9.10;70.70
47338;DHT22;33069;51.970;5.892;2023-04-15T08:11:51;9.20;69.90
47338;DHT22;33069;51.970;5.892;2023-04-15T08:14:17;9.30;69.80
47338;DHT22;33069;51.970;5.892;2023-04-15T08:16:43;9.50;69.90
47338;DHT22;33069;51.970;5.892;2023-04-15T08:19:09;9.70;68.60
47338;DHT22;33069;51.970;5.892;2023-04-15T08:21:35;9.70;68.50
47338;DHT22;33069;51.970;5.892;2023-04-15T08:24:01;9.70;68.30
47338;DHT22;33069;51.970;5.892;2023-04-15T08:26:27;9.60;67.80
47338;DHT22;33069;51.970;5.892;2023-04-15T08:28:53;9.70;68.00
47338;DHT22;33069;51.970;5.892;2023-04-15T08:31:19;9.80;67.00
47338;DHT22;33069;51.970;5.892;2023-04-15T08:33:45;9.80;66.10
47338;DHT22;33069;51.970;5.892;2023-04-15T08:36:11;9.60;66.10
47338;DHT22;33069;51.970;5.892;2023-04-15T08:38:38;9.80;66.00
47338;DHT22;33069;51.970;5.892;2023-04-15T08:41:16;9.70;66.10
47338;DHT22;33069;51.970;5.892;2023-04-15T08:43:56;9.90;65.80
47338;DHT22;33069;51.970;5.892;2023-04-15T08:46:23;10.00;65.70
47338;DHT22;33069;51.970;5.892;2023-04-15T08:48:49;10.10;65.00
47338;DHT22;33069;51.970;5.892;2023-04-15T08:51:18;10.10;65.40
47338;DHT22;33069;51.970;5.892;2023-04-15T08:53:44;10.00;65.60
47338;DHT22;33069;51.970;5.892;2023-04-15T08:56:13;10.10;65.50
47338;DHT22;33069;51.970;5.892;2023-04-15T08:58:40;10.00;65.80
47338;DHT22;33069;51.970;5.892;2023-04-15T09:01:06;9.80;66.30
47338;DHT22;33069;51.970;5.892;2023-04-15T09:03:33;9.70;66.30
47338;DHT22;33069;51.970;5.892;2023-04-15T09:05:59;9.80;66.10
47338;DHT22;33069;51.970;5.892;2023-04-15T09:08:25;9.90;65.90
47338;DHT22;33069;51.970;5.892;2023-04-15T09:10:51;10.10;66.20
47338;DHT22;33069;51.970;5.892;2023-04-15T09:13:18;10.20;65.40
47338;DHT22;33069;51.970;5.892;2023-04-15T09:15:43;10.00;65.90
47338;DHT22;33069;51.970;5.892;2023-04-15T09:18:11;10.10;66.20
47338;DHT22;33069;51.970;5.892;2023-04-15T09:20:41;10.00;65.80
47338;DHT22;33069;51.970;5.892;2023-04-15T09:23:12;10.20;65.90
47338;DHT22;33069;51.970;5.892;2023-04-15T09:25:39;10.30;65.20
47338;DHT22;33069;51.970;5.892;2023-04-15T09:28:07;10.50;65.50
47338;DHT22;33069;51.970;5.892;2023-04-15T09:30:33;10.40;65.20
47338;DHT22;33069;51.970;5.892;2023-04-15T09:33:01;10.40;65.40
47338;DHT22;33069;51.970;5.892;2023-04-15T09:35:27;10.40;66.50
47338;DHT22;33069;51.970;5.892;2023-04-15T09:38:04;10.30;66.50
47338;DHT22;33069;51.970;5.892;2023-04-15T09:40:37;10.30;66.40
47338;DHT22;33069;51.970;5.892;2023-04-15T09:43:04;10.50;65.80
47338;DHT22;33069;51.970;5.892;2023-04-15T09:45:31;10.60;66.00
47338;DHT22;33069;51.970;5.892;2023-04-15T09:48:24;10.50;66.00
47338;DHT22;33069;51.970;5.892;2023-04-15T09:50:52;10.50;66.50
47338;DHT22;33069;51.970;5.892;2023-04-15T09:53:23;10.60;65.10
47338;DHT22;33069;51.970;5.892;2023-04-15T09:55:54;10.70;64.70
47338;DHT22;33069;51.970;5.892;2023-04-15T09:58:31;10.80;65.50
47338;DHT22;33069;51.970;5.892;2023-04-15T10:00:59;11.00;65.50
47338;DHT22;33069;51.970;5.892;2023-04-15T10:03:30;11.10;64.40
47338;DHT22;33069;51.970;5.892;2023-04-15T10:05:58;11.30;63.30
47338;DHT22;33069;51.970;5.892;2023-04-15T10:08:27;11.20;62.80
47338;DHT22;33069;51.970;5.892;2023-04-15T10:10:53;11.20;62.70
47338;DHT22;33069;51.970;5.892;2023-04-15T10:13:21;11.20;63.40
47338;DHT22;33069;51.970;5.892;2023-04-15T10:15:57;11.20;63.60
47338;DHT22;33069;51.970;5.892;2023-04-15T10:18:25;11.10;64.10
47338;DHT22;33069;51.970;5.892;2023-04-15T10:20:52;11.00;63.20
47338;DHT22;33069;51.970;5.892;2023-04-15T10:23:19;11.20;63.30
47338;DHT22;33069;51.970;5.892;2023-04-15T10:25:46;11.20;62.60
47338;DHT22;33069;51.970;5.892;2023-04-15T10:28:14;11.20;62.40
47338;DHT22;33069;51.970;5.892;2023-04-15T10:31:13;11.30;62.20
47338;DHT22;33069;51.970;5.892;2023-04-15T10:33:43;11.60;61.70
47338;DHT22;33069;51.970;5.892;2023-04-15T10:36:10;11.50;61.00
47338;DHT22;33069;51.970;5.892;2023-04-15T10:38:41;11.30;61.70
47338;DHT22;33069;51.970;5.892;2023-04-15T10:41:22;11.40;61.80
47338;DHT22;33069;51.970;5.892;2023-04-15T10:44:02;11.40;62.30
47338;DHT22;33069;51.970;5.892;2023-04-15T10:46:44;11.60;62.50
47338;DHT22;33069;51.970;5.892;2023-04-15T10:49:13;11.80;61.40
47338;DHT22;33069;51.970;5.892;2023-04-15T10:51:44;11.70;62.10
47338;DHT22;33069;51.970;5.892;2023-04-15T10:54:32;11.80;63.90
47338;DHT22;33069;51.970;5.892;2023-04-15T10:59:29;11.70;61.40
47338;DHT22;33069;51.970;5.892;2023-04-15T11:02:06;11.70;60.70
47338;DHT22;33069;51.970;5.892;2023-04-15T11:04:54;11.70;60.80
47338;DHT22;33069;51.970;5.892;2023-04-15T11:12:52;12.00;60.10
47338;DHT22;33069;51.970;5.892;2023-04-15T11:15:37;12.20;59.80
47338;DHT22;33069;51.970;5.892;2023-04-15T11:18:22;12.10;59.80
47338;DHT22;33069;51.970;5.892;2023-04-15T11:20:56;11.90;60.60
47338;DHT22;33069;51.970;5.892;2023-04-15T11:23:41;11.60;60.30
47338;DHT22;33069;51.970;5.892;2023-04-15T11:26:13;11.80;60.20
47338;DHT22;33069;51.970;5.892;2023-04-15T11:28:43;12.20;60.30
47338;DHT22;33069;51.970;5.892;2023-04-15T11:31:13;12.10;57.90
47338;DHT22;33069;51.970;5.892;2023-04-15T11:34:03;12.00;58.90
47338;DHT22;33069;51.970;5.892;2023-04-15T11:36:29;12.20;58.50
47338;DHT22;33069;51.970;5.892;2023-04-15T11:38:57;12.00;57.90
47338;DHT22;33069;51.970;5.892;2023-04-15T11:41:24;12.50;58.90
47338;DHT22;33069;51.970;5.892;2023-04-15T11:43:50;12.60;57.60
47338;DHT22;33069;51.970;5.892;2023-04-15T11:46:16;12.40;59.00
47338;DHT22;33069;51.970;5.892;2023-04-15T11:48:44;12.00;56.50
47338;DHT22;33069;51.970;5.892;2023-04-15T11:51:10;12.40;58.20
47338;DHT22;33069;51.970;5.892;2023-04-15T11:53:47;12.40;57.50
47338;DHT22;33069;51.970;5.892;2023-04-15T11:56:18;12.10;58.90
47338;DHT22;33069;51.970;5.892;2023-04-15T11:58:45;12.00;58.30
47338;DHT22;33069;51.970;5.892;2023-04-15T12:01:12;12.10;57.30
47338;DHT22;33069;51.970;5.892;2023-04-15T12:03:42;12.30;56.10
47338;DHT22;33069;51.970;5.892;2023-04-15T12:06:13;12.40;56.80
47338;DHT22;33069;51.970;5.892;2023-04-15T12:16:28;12.20;57.80
47338;DHT22;33069;51.970;5.892;2023-04-15T12:18:58;12.20;58.20
47338;DHT22;33069;51.970;5.892;2023-04-15T12:21:26;12.30;57.70
47338;DHT22;33069;51.970;5.892;2023-04-15T12:23:56;12.50;58.20
47338;DHT22;33069;51.970;5.892;2023-04-15T12:26:27;12.50;57.00
47338;DHT22;33069;51.970;5.892;2023-04-15T12:29:03;12.80;58.70
47338;DHT22;33069;51.970;5.892;2023-04-15T12:31:29;12.60;57.40
47338;DHT22;33069;51.970;5.892;2023-04-15T12:33:58;12.70;58.80
47338;DHT22;33069;51.970;5.892;2023-04-15T12:36:25;12.80;57.30
47338;DHT22;33069;51.970;5.892;2023-04-15T12:38:51;12.50;58.00
47338;DHT22;33069;51.970;5.892;2023-04-15T12:41:17;12.50;57.90
47338;DHT22;33069;51.970;5.892;2023-04-15T12:43:44;12.90;56.50
47338;DHT22;33069;51.970;5.892;2023-04-15T12:46:12;12.90;57.30
47338;DHT22;33069;51.970;5.892;2023-04-15T12:48:37;12.70;56.70
47338;DHT22;33069;51.970;5.892;2023-04-15T12:51:03;12.50;57.80
47338;DHT22;33069;51.970;5.892;2023-04-15T12:53:29;12.40;58.20
47338;DHT22;33069;51.970;5.892;2023-04-15T12:55:55;12.30;60.10
47338;DHT22;33069;51.970;5.892;2023-04-15T12:58:21;12.20;60.00
47338;DHT22;33069;51.970;5.892;2023-04-15T13:00:47;12.40;60.30
47338;DHT22;33069;51.970;5.892;2023-04-15T13:03:14;12.50;57.00
47338;DHT22;33069;51.970;5.892;2023-04-15T13:05:40;12.30;58.20
47338;DHT22;33069;51.970;5.892;2023-04-15T13:08:06;12.30;59.10
47338;DHT22;33069;51.970;5.892;2023-04-15T13:10:32;12.10;58.20
47338;DHT22;33069;51.970;5.892;2023-04-15T13:12:58;12.40;60.70
47338;DHT22;33069;51.970;5.892;2023-04-15T13:15:24;12.80;58.80
47338;DHT22;33069;51.970;5.892;2023-04-15T13:17:50;12.50;57.80
47338;DHT22;33069;51.970;5.892;2023-04-15T13:20:16;12.30;60.10
47338;DHT22;33069;51.970;5.892;2023-04-15T13:22:42;12.50;59.20
47338;DHT22;33069;51.970;5.892;2023-04-15T13:25:08;12.30;58.10
47338;DHT22;33069;51.970;5.892;2023-04-15T13:27:33;12.40;58.40
47338;DHT22;33069;51.970;5.892;2023-04-15T13:30:00;12.20;57.20
47338;DHT22;33069;51.970;5.892;2023-04-15T13:32:25;12.00;58.30
47338;DHT22;33069;51.970;5.892;2023-04-15T13:34:51;12.00;59.60
47338;DHT22;33069;51.970;5.892;2023-04-15T13:37:17;12.20;59.90
47338;DHT22;33069;51.970;5.892;2023-04-15T13:39:42;12.10;58.80
47338;DHT22;33069;51.970;5.892;2023-04-15T13:42:08;12.10;58.60
47338;DHT22;33069;51.970;5.892;2023-04-15T13:44:34;12.20;60.40
47338;DHT22;33069;51.970;5.892;2023-04-15T13:47:00;12.50;60.00
47338;DHT22;33069;51.970;5.892;2023-04-15T13:49:26;12.50;58.90
47338;DHT22;33069;51.970;5.892;2023-04-15T13:51:51;12.70;59.00
47338;DHT22;33069;51.970;5.892;2023-04-15T13:54:17;12.70;58.00
47338;DHT22;33069;51.970;5.892;2023-04-15T13:56:43;12.30;58.60
47338;DHT22;33069;51.970;5.892;2023-04-15T13:59:08;12.00;59.80
47338;DHT22;33069;51.970;5.892;2023-04-15T14:01:34;12.10;60.50
47338;DHT22;33069;51.970;5.892;2023-04-15T14:04:00;11.70;61.70
47338;DHT22;33069;51.970;5.892;2023-04-15T14:06:26;11.90;62.20
47338;DHT22;33069;51.970;5.892;2023-04-15T14:08:53;11.70;62.00
47338;DHT22;33069;51.970;5.892;2023-04-15T14:11:19;11.70;63.00
47338;DHT22;33069;51.970;5.892;2023-04-15T14:13:45;11.70;62.30
47338;DHT22;33069;51.970;5.892;2023-04-15T14:16:11;11.50;62.90
47338;DHT22;33069;51.970;5.892;2023-04-15T14:18:36;11.30;63.20
47338;DHT22;33069;51.970;5.892;2023-04-15T14:21:03;11.10;64.10
47338;DHT22;33069;51.970;5.892;2023-04-15T14:23:29;11.10;63.60
47338;DHT22;33069;51.970;5.892;2023-04-15T14:25:55;11.20;63.90
47338;DHT22;33069;51.970;5.892;2023-04-15T14:28:20;11.10;63.80
47338;DHT22;33069;51.970;5.892;2023-04-15T14:30:46;10.90;64.40
47338;DHT22;33069;51.970;5.892;2023-04-15T14:33:12;10.90;65.80
47338;DHT22;33069;51.970;5.892;2023-04-15T14:35:37;11.10;65.70
47338;DHT22;33069;51.970;5.892;2023-04-15T14:38:03;11.10;65.50
47338;DHT22;33069;51.970;5.892;2023-04-15T14:40:32;10.80;65.80
47338;DHT22;33069;51.970;5.892;2023-04-15T14:42:57;10.70;66.70
47338;DHT22;33069;51.970;5.892;2023-04-15T14:45:23;10.80;65.90
47338;DHT22;33069;51.970;5.892;2023-04-15T14:47:49;10.70;66.80
47338;DHT22;33069;51.970;5.892;2023-04-15T14:50:16;10.70;66.90
47338;DHT22;33069;51.970;5.892;2023-04-15T14:52:42;10.60;67.50
47338;DHT22;33069;51.970;5.892;2023-04-15T14:55:09;10.70;67.40
47338;DHT22;33069;51.970;5.892;2023-04-15T14:57:39;10.60;67.20
47338;DHT22;33069;51.970;5.892;2023-04-15T15:00:06;10.60;66.90
47338;DHT22;33069;51.970;5.892;2023-04-15T15:02:33;10.60;67.20
47338;DHT22;33069;51.970;5.892;2023-04-15T15:05:00;10.60;67.90
47338;DHT22;33069;51.970;5.892;2023-04-15T15:07:25;10.70;68.10
47338;DHT22;33069;51.970;5.892;2023-04-15T15:09:52;10.60;67.30
47338;DHT22;33069;51.970;5.892;2023-04-15T15:12:18;10.50;67.70
47338;DHT22;33069;51.970;5.892;2023-04-15T15:14:43;10.40;68.20
47338;DHT22;33069;51.970;5.892;2023-04-15T15:17:09;10.30;67.50
47338;DHT22;33069;51.970;5.892;2023-04-15T15:19:35;10.20;67.60
47338;DHT22;33069;51.970;5.892;2023-04-15T15:22:02;10.30;67.60
47338;DHT22;33069;51.970;5.892;2023-04-15T15:24:28;10.20;67.20
47338;DHT22;33069;51.970;5.892;2023-04-15T15:26:53;10.30;67.90
47338;DHT22;33069;51.970;5.892;2023-04-15T15:29:19;10.20;67.40
47338;DHT22;33069;51.970;5.892;2023-04-15T15:31:45;10.30;67.90
47338;DHT22;33069;51.970;5.892;2023-04-15T15:34:11;10.20;68.00
47338;DHT22;33069;51.970;5.892;2023-04-15T15:36:36;10.20;69.00
47338;DHT22;33069;51.970;5.892;2023-04-15T15:39:02;10.20;69.30
47338;DHT22;33069;51.970;5.892;2023-04-15T15:41:28;10.20;69.80
47338;DHT22;33069;51.970;5.892;2023-04-15T15:43:54;10.10;70.20
47338;DHT22;33069;51.970;5.892;2023-04-15T15:46:20;10.00;70.20
47338;DHT22;33069;51.970;5.892;2023-04-15T15:48:45;10.00;70.90
47338;DHT22;33069;51.970;5.892;2023-04-15T15:51:11;10.00;71.20
47338;DHT22;33069;51.970;5.892;2023-04-15T15:53:37;10.00;71.60
47338;DHT22;33069;51.970;5.892;2023-04-15T15:56:03;10.10;71.10
47338;DHT22;33069;51.970;5.892;2023-04-15T15:58:30;10.10;70.50
47338;DHT22;33069;51.970;5.892;2023-04-15T16:00:56;10.00;71.10
47338;DHT22;33069;51.970;5.892;2023-04-15T16:03:22;10.00;71.30